Thunder radar more information blitzortung!


Radar de pluja more information rain snow radar


Visita la nostra xarxa de llocs de meteo:

Template documentation
and downloads

And another site



No particular awareness of the weather is required.    There are no Weather-warnings

Pagina Historial Weather Underground text

Diari Resum January 30, 2018 Unitats:  Imperial    Mètric   Tant
« Previous Dia
SegĂźent Dia »
Diari Setmana Mensual Anual Personalitzada
  Maxima: Minima: Media:
Temperatura: TemperatureC °F 2.8 °F 10 °F
Punt de rosada: DewpointC °F -0.5 °F 3.9 °F
Humitat: Humidity % 53 % 66 %
Wind Speed: WindSpeedKMH mph 0.0 mph 3.5 mph
RĂ fegues de vent: WindSpeedGustKMH mph - -
Vent:- - NE
Pression baro: PressurehPa in 1026.0 in -
Precipitacions: 0.0 in    
Historical Graphs
 
 
Dades de taula per January 30, 2018
Temps Temperatura Punt de rosada Pression baro Vent Wind Speed RĂ fegues de vent Humitat Rainfall Rate (Hourly)
TemperatureC °F DewpointC °F PressurehPa in Calm     Humidity % HourlyPrecipMM in
00:02 7.5 °F 1.6 °F 1033.7 in North 3.2 mph 3.2 mph 66 % 0.0 in
00:05 3.8 °F 0.1 °F 1032.1 in North 1.6 mph 3.2 mph 77 % 0.0 in
00:07 6.9 °F 1.0 °F 1033.7 in North 3.7 mph 3.7 mph 66 % 0.0 in
00:12 6.8 °F 1.1 °F 1033.7 in North 2.3 mph 2.3 mph 67 % 0.0 in
00:15 3.8 °F 0.1 °F 1032.1 in North 1.6 mph 1.6 mph 77 % 0.0 in
00:17 6.7 °F 1.0 °F 1033.7 in Calm     67 % 0.0 in
00:22 6.7 °F 1.2 °F 1033.7 in North 3.9 mph 3.9 mph 68 % 0.0 in
00:25 3.8 °F 0.3 °F 1032.1 in North 3.2 mph 3.2 mph 78 % 0.0 in
00:27 6.4 °F 0.7 °F 1033.7 in North 5.6 mph 5.6 mph 67 % 0.0 in
00:32 6.3 °F 0.6 °F 1033.7 in North 3.7 mph 3.7 mph 67 % 0.0 in
00:35 3.5 °F -0.2 °F 1032.1 in North 1.6 mph 3.2 mph 77 % 0.0 in
00:37 6.3 °F 0.8 °F 1033.7 in North 3.5 mph 3.5 mph 68 % 0.0 in
00:45 3.4 °F -0.3 °F 1032.1 in Calm   3.2 mph 77 % 0.0 in
00:55 3.7 °F 0.1 °F 1032.1 in North 3.2 mph 4.8 mph 77 % 0.0 in
01:05 3.6 °F 0.1 °F 1032.1 in North 1.6 mph 1.6 mph 78 % 0.0 in
01:15 3.6 °F 0.1 °F 1032.1 in Calm   4.8 mph 78 % 0.0 in
01:35 3.5 °F 0.0 °F 1032.1 in Calm   1.6 mph 78 % 0.0 in
01:45 3.5 °F 0.0 °F 1032.1 in Calm   1.6 mph 78 % 0.0 in
01:55 3.6 °F 0.1 °F 1032.1 in North 1.6 mph 3.2 mph 78 % 0.0 in
02:05 3.6 °F 0.3 °F 1032.1 in Calm   1.6 mph 79 % 0.0 in
02:15 3.5 °F 0.2 °F 1032.1 in North 1.6 mph 1.6 mph 79 % 0.0 in
02:25 3.5 °F 0.2 °F 1032.1 in North 1.6 mph 1.6 mph 79 % 0.0 in
02:35 3.6 °F 0.3 °F 1032.1 in Calm   3.2 mph 79 % 0.0 in
02:45 4.0 °F 0.7 °F 1032.1 in Calm   3.2 mph 79 % 0.0 in
02:55 4.5 °F 1.3 °F 1032.1 in North 1.6 mph 1.6 mph 80 % 0.0 in
03:15 4.7 °F 1.4 °F 1032.1 in Calm   3.2 mph 79 % 0.0 in
03:25 5.8 °F 2.6 °F 1032.1 in Calm     80 % 0.0 in
03:35 6.0 °F 2.4 °F 1032.1 in North 1.6 mph 3.2 mph 78 % 0.0 in
03:45 6.4 °F 2.7 °F 1032.1 in North 1.6 mph 1.6 mph 77 % 0.0 in
04:05 7.4 °F 3.3 °F 1032.1 in Calm   3.2 mph 75 % 0.0 in
04:15 7.2 °F 2.9 °F 1032.1 in Calm   3.2 mph 74 % 0.0 in
04:25 7.6 °F 3.3 °F 1032.7 in North 1.6 mph 3.2 mph 74 % 0.0 in
04:35 8.3 °F 3.7 °F 1032.1 in Calm   1.6 mph 73 % 0.0 in
10:40 8.4 °F 3.7 °F 1032.1 in North 3.7 mph 3.7 mph 72 % 0.0 in
10:45 8.8 °F 4.0 °F 1032.1 in North 3.7 mph 3.7 mph 72 % 0.0 in
10:50 9.1 °F 4.1 °F 1032.1 in North 3.7 mph 3.7 mph 71 % 0.0 in
10:55 9.1 °F 3.9 °F 1032.1 in ENE 5.6 mph 5.6 mph 70 % 0.0 in
11:00 9.1 °F 3.7 °F 1032.7 in ENE 7.4 mph 7.4 mph 69 % 0.0 in
11:05 9.1 °F 3.9 °F 1032.7 in NNE 5.6 mph 5.6 mph 70 % 0.0 in
11:10 9.3 °F 3.9 °F 1032.7 in ENE 7.4 mph 7.4 mph 69 % 0.0 in
11:15 9.2 °F 3.6 °F 1032.1 in NE 7.4 mph 7.4 mph 68 % 0.0 in
11:20 9.4 °F 3.8 °F 1032.1 in ENE 7.4 mph 7.4 mph 68 % 0.0 in
11:25 9.8 °F 4.2 °F 1032.1 in NNE 6.1 mph 6.1 mph 68 % 0.0 in
11:30 9.9 °F 4.1 °F 1032.1 in NNE 7.4 mph 7.4 mph 67 % 0.0 in
11:35 10.3 °F 4.4 °F 1032.1 in NE 7.4 mph 7.4 mph 67 % 0.0 in
11:40 10.6 °F 4.7 °F 1032.1 in ENE 7.4 mph 7.4 mph 67 % 0.0 in
11:45 10.7 °F 4.6 °F 1030.7 in NE 5.6 mph 5.6 mph 66 % 0.0 in
11:50 10.9 °F 4.6 °F 1030.7 in ENE 5.8 mph 6.1 mph 65 % 0.0 in
11:55 11.1 °F 4.8 °F 1030.7 in NE 7.4 mph 7.4 mph 65 % 0.0 in
12:00 11.2 °F 4.6 °F 1030.7 in NE 9.3 mph 9.3 mph 64 % 0.0 in
12:05 11.7 °F 5.3 °F 1030.7 in ENE 3.7 mph 3.7 mph 65 % 0.0 in
12:10 11.8 °F 5.2 °F 1030.7 in NNE 5.8 mph 5.8 mph 64 % 0.0 in
12:15 11.8 °F 5.2 °F 1032.1 in NNE 5.6 mph 5.6 mph 64 % 0.0 in
12:20 12.1 °F 5.5 °F 1032.1 in North 3.7 mph 3.7 mph 64 % 0.0 in
12:25 12.0 °F 5.2 °F 1032.1 in ENE 3.7 mph 3.7 mph 63 % 0.0 in
12:30 12.5 °F 5.7 °F 1032.1 in ENE 3.2 mph   63 % 0.0 in
12:35 12.6 °F 5.7 °F 1032.1 in ENE 4.7 mph 4.7 mph 63 % 0.0 in
12:40 12.5 °F 5.4 °F 1032.1 in ENE 3.7 mph 3.7 mph 62 % 0.0 in
12:45 12.8 °F 5.9 °F 1030.7 in ENE 3.9 mph 3.9 mph 63 % 0.0 in
12:50 12.8 °F 5.7 °F 1030.7 in ENE 3.7 mph 3.7 mph 62 % 0.0 in
12:55 13.1 °F 6.0 °F 1030.7 in ENE 5.6 mph 5.6 mph 62 % 0.0 in
13:00 13.1 °F 5.7 °F 1030.7 in ENE 5.6 mph 5.6 mph 61 % 0.0 in
13:05 13.4 °F 6.0 °F 1030.7 in ENE 5.6 mph 5.6 mph 61 % 0.0 in
13:10 13.4 °F 6.0 °F 1030.7 in ENE 5.8 mph 5.8 mph 61 % 0.0 in
13:15 13.6 °F 6.2 °F 1030.7 in ENE 5.6 mph 5.6 mph 61 % 0.0 in
13:20 13.8 °F 6.4 °F 1030.7 in NE 7.4 mph 7.4 mph 61 % 0.0 in
13:25 14.0 °F 6.6 °F 1030.7 in NE 6.1 mph 6.1 mph 61 % 0.0 in
13:30 13.9 °F 6.3 °F 1030.0 in NE 4.2 mph 4.2 mph 60 % 0.0 in
13:35 14.3 °F 6.6 °F 1030.0 in NE 2.6 mph 2.6 mph 60 % 0.0 in
13:40 14.5 °F 6.8 °F 1030.0 in NE 5.6 mph 5.6 mph 60 % 0.0 in
13:45 14.6 °F 6.4 °F 1030.0 in NE 9.3 mph 9.3 mph 58 % 0.0 in
13:50 14.8 °F 6.6 °F 1030.0 in NE 5.6 mph 5.6 mph 58 % 0.0 in
13:55 14.8 °F 6.3 °F 1030.0 in NE 5.6 mph 5.6 mph 57 % 0.0 in
14:00 14.7 °F 6.3 °F 1030.0 in NE 7.4 mph 7.4 mph 57 % 0.0 in
14:05 14.8 °F 6.6 °F 1030.0 in NE 5.6 mph 5.6 mph 58 % 0.0 in
14:10 14.8 °F 6.3 °F 1030.0 in NE 7.4 mph 7.4 mph 57 % 0.0 in
14:15 15.0 °F 6.8 °F 1030.0 in NE 3.9 mph 3.9 mph 58 % 0.0 in
14:20 15.1 °F 6.9 °F 1030.0 in NE 3.7 mph 3.7 mph 58 % 0.0 in
14:25 15.3 °F 7.1 °F 1030.0 in NE 7.2 mph 7.2 mph 58 % 0.0 in
14:30 15.6 °F 7.3 °F 1030.0 in NE 3.7 mph 3.7 mph 58 % 0.0 in
14:35 16.0 °F 7.7 °F 1030.0 in NE 3.7 mph 3.7 mph 58 % 0.0 in
14:40 15.9 °F 7.4 °F 1030.0 in NE 5.6 mph 5.6 mph 57 % 0.0 in
14:45 16.0 °F 7.7 °F 1030.0 in NE 3.7 mph 3.7 mph 58 % 0.0 in
14:50 16.2 °F 8.2 °F 1030.0 in NE 9.3 mph 9.3 mph 59 % 0.0 in
14:55 16.5 °F 8.2 °F 1030.0 in NE 9.3 mph 9.3 mph 58 % 0.0 in
15:00 16.4 °F 7.8 °F 1030.0 in NE 9.3 mph 9.3 mph 57 % 0.0 in
15:05 16.1 °F 7.3 °F 1030.0 in NE 11.1 mph 11.1 mph 56 % 0.0 in
15:10 16.2 °F 7.4 °F 1030.0 in NE 7.4 mph 7.4 mph 56 % 0.0 in
15:15 16.3 °F 7.5 °F 1030.0 in NE 9.3 mph 9.3 mph 56 % 0.0 in
15:20 16.5 °F 7.7 °F 1030.0 in NE 5.6 mph 5.6 mph 56 % 0.0 in
15:25 16.6 °F 7.8 °F 1030.0 in NE 11.9 mph 11.9 mph 56 % 0.0 in
15:30 16.6 °F 7.5 °F 1030.0 in NE 9.3 mph 9.3 mph 55 % 0.0 in
15:35 16.7 °F 7.3 °F 1030.0 in NE 6.4 mph 6.4 mph 54 % 0.0 in
15:40 16.7 °F 7.3 °F 1030.0 in NE 9.3 mph 9.3 mph 54 % 0.0 in
15:45 16.6 °F 7.2 °F 1030.0 in NE 7.4 mph 7.4 mph 54 % 0.0 in
15:50 16.7 °F 7.3 °F 1030.0 in NE 9.3 mph 9.3 mph 54 % 0.0 in
15:55 17.0 °F 7.3 °F 1030.0 in NE 3.9 mph 3.9 mph 53 % 0.0 in
16:00 17.1 °F 7.4 °F 1030.0 in NE 5.6 mph 5.6 mph 53 % 0.0 in
16:05 16.8 °F 7.4 °F 1030.0 in NE 7.4 mph 7.4 mph 54 % 0.0 in
16:10 16.8 °F 7.4 °F 1030.0 in NE 7.4 mph 7.4 mph 54 % 0.0 in
16:15 16.7 °F 7.3 °F 1030.0 in NE 7.4 mph 7.4 mph 54 % 0.0 in
16:20 16.7 °F 7.3 °F 1030.0 in NE 4.7 mph 4.7 mph 54 % 0.0 in
16:25 16.5 °F 7.2 °F 1030.0 in NE 9.3 mph 9.3 mph 54 % 0.0 in
16:30 16.3 °F 6.9 °F 1030.0 in NE 11.1 mph 11.1 mph 54 % 0.0 in
16:35 16.2 °F 6.9 °F 1030.0 in NE 7.4 mph 7.4 mph 54 % 0.0 in
16:40 16.0 °F 6.7 °F 1030.0 in NE 9.3 mph 9.3 mph 54 % 0.0 in
16:45 15.9 °F 6.6 °F 1030.0 in NE 9.3 mph 9.3 mph 54 % 0.0 in
16:50 15.6 °F 6.3 °F 1030.0 in NE 6.9 mph 6.9 mph 54 % 0.0 in
16:55 15.5 °F 6.5 °F 1030.0 in NE 9.3 mph 9.3 mph 55 % 0.0 in
17:00 15.4 °F 6.4 °F 1030.0 in NE 7.4 mph 7.4 mph 55 % 0.0 in
17:05 15.3 °F 6.3 °F 1030.0 in NE 5.8 mph 6.1 mph 55 % 0.0 in
17:07 15.3 °F 6.3 °F 1030.0 in NE 9.3 mph 9.3 mph 55 % 0.0 in
17:12 15.1 °F 6.1 °F 1030.0 in NE 9.3 mph 9.3 mph 55 % 0.0 in
17:17 14.9 °F 6.2 °F 1029.0 in NE 7.4 mph 7.4 mph 56 % 0.0 in
17:22 14.8 °F 6.1 °F 1029.0 in NE 9.0 mph 9.0 mph 56 % 0.0 in
17:27 14.6 °F 5.9 °F 1029.0 in NE 5.0 mph 5.8 mph 56 % 0.0 in
17:32 14.5 °F 5.8 °F 1029.0 in NE 5.6 mph 5.6 mph 56 % 0.0 in
17:37 14.2 °F 5.8 °F 1029.0 in NE 5.6 mph 5.6 mph 57 % 0.0 in
17:42 14.0 °F 5.6 °F 1029.0 in NE 7.4 mph 7.4 mph 57 % 0.0 in
17:47 13.8 °F 5.4 °F 1029.0 in NE 5.6 mph 5.6 mph 57 % 0.0 in
17:52 13.6 °F 5.5 °F 1029.0 in NE 5.6 mph 5.6 mph 58 % 0.0 in
17:57 13.4 °F 5.3 °F 1029.0 in NE 3.7 mph 3.7 mph 58 % 0.0 in
18:02 13.1 °F 5.3 °F 1029.0 in NE 3.7 mph 3.7 mph 59 % 0.0 in
18:07 12.9 °F 5.1 °F 1029.0 in NE 3.7 mph 3.7 mph 59 % 0.0 in
18:12 12.8 °F 5.2 °F 1029.0 in NE 3.7 mph 3.9 mph 60 % 0.0 in
18:17 12.6 °F 5.1 °F 1030.0 in NE 7.4 mph 7.4 mph 60 % 0.0 in
18:22 12.5 °F 4.9 °F 1030.0 in NE 3.7 mph 3.7 mph 60 % 0.0 in
18:27 12.3 °F 5.0 °F 1030.0 in NE 3.7 mph 3.7 mph 61 % 0.0 in
18:32 12.1 °F 4.8 °F 1030.0 in NE 3.7 mph 3.7 mph 61 % 0.0 in
18:37 12.0 °F 4.7 °F 1030.0 in NE 3.9 mph 3.9 mph 61 % 0.0 in
18:42 11.9 °F 4.8 °F 1030.0 in NE 3.7 mph 3.7 mph 62 % 0.0 in
18:47 11.8 °F 4.7 °F 1030.0 in NE 3.9 mph 3.9 mph 62 % 0.0 in
18:52 11.6 °F 4.8 °F 1030.0 in NE 1.9 mph   63 % 0.0 in
18:57 11.5 °F 4.7 °F 1030.0 in Calm     63 % 0.0 in
19:02 11.4 °F 4.6 °F 1029.0 in NE 1.9 mph   63 % 0.0 in
19:07 11.3 °F 4.5 °F 1029.0 in NE 3.7 mph   63 % 0.0 in
19:12 11.3 °F 4.5 °F 1029.0 in NE 3.7 mph 3.7 mph 63 % 0.0 in
19:17 11.3 °F 4.5 °F 1030.0 in NE 3.7 mph 3.7 mph 63 % 0.0 in
19:22 11.2 °F 4.4 °F 1030.0 in NE 2.6 mph 2.6 mph 63 % 0.0 in
19:27 11.1 °F 4.6 °F 1030.0 in NE 3.7 mph 3.7 mph 64 % 0.0 in
19:32 11.1 °F 4.6 °F 1030.0 in NE 3.7 mph   64 % 0.0 in
19:37 11.0 °F 4.4 °F 1030.0 in NE 2.3 mph 2.3 mph 64 % 0.0 in
19:42 11.0 °F 4.4 °F 1030.0 in Calm     64 % 0.0 in
19:47 10.9 °F 4.6 °F 1030.0 in NE 2.6 mph 2.6 mph 65 % 0.0 in
19:52 10.8 °F 4.5 °F 1030.0 in Calm     65 % 0.0 in
19:57 10.7 °F 4.4 °F 1030.0 in NE 1.9 mph   65 % 0.0 in
20:02 10.6 °F 4.1 °F 1030.0 in NE 1.9 mph 1.9 mph 64 % 0.0 in
20:07 10.5 °F 4.2 °F 1030.0 in NE 1.9 mph 1.9 mph 65 % 0.0 in
20:12 10.4 °F 4.1 °F 1030.0 in Calm     65 % 0.0 in
20:17 10.2 °F 3.9 °F 1030.0 in Calm     65 % 0.0 in
20:22 10.0 °F 3.9 °F 1030.0 in Calm     66 % 0.0 in
20:27 9.8 °F 3.7 °F 1030.0 in NE 3.7 mph   66 % 0.0 in
20:32 9.5 °F 3.4 °F 1030.0 in NE 2.6 mph 2.6 mph 66 % 0.0 in
20:35 4.6 °F 1.3 °F 1027.0 in Calm   3.2 mph 79 % 0.0 in
20:37 9.4 °F 3.6 °F 1030.0 in NE 1.9 mph 1.9 mph 67 % 0.0 in
20:42 9.3 °F 3.5 °F 1030.0 in NE 2.3 mph 2.3 mph 67 % 0.0 in
20:45 4.5 °F 1.2 °F 1027.0 in Calm     79 % 0.0 in
20:47 9.3 °F 3.5 °F 1030.0 in NE 2.6 mph 2.6 mph 67 % 0.0 in
20:52 9.3 °F 3.7 °F 1030.0 in NE 1.9 mph 1.9 mph 68 % 0.0 in
20:55 4.3 °F 1.0 °F 1028.0 in Calm     79 % 0.0 in
20:57 9.2 °F 3.6 °F 1030.0 in NE 1.9 mph 1.9 mph 68 % 0.0 in
21:02 9.1 °F 3.7 °F 1030.0 in Calm     69 % 0.0 in
21:05 4.2 °F 0.9 °F 1028.0 in NE 1.6 mph 3.2 mph 79 % 0.0 in
21:07 9.0 °F 3.6 °F 1030.0 in Calm     69 % 0.0 in
21:12 9.0 °F 3.6 °F 1030.0 in Calm     69 % 0.0 in
21:15 4.2 °F 0.9 °F 1028.0 in Calm     79 % 0.0 in
21:17 8.8 °F 3.4 °F 1030.0 in Calm     69 % 0.0 in
21:22 8.7 °F 3.3 °F 1030.0 in Calm     69 % 0.0 in
21:25 4.3 °F 1.0 °F 1028.0 in Calm   3.2 mph 79 % 0.0 in
21:27 8.6 °F 3.2 °F 1030.0 in NE 2.3 mph 2.3 mph 69 % 0.0 in
21:32 8.5 °F 3.1 °F 1030.0 in NE 1.9 mph 1.9 mph 69 % 0.0 in
21:35 4.3 °F 1.0 °F 1028.0 in NE 1.6 mph 1.6 mph 79 % 0.0 in
21:37 8.5 °F 3.1 °F 1030.0 in NE 1.9 mph   69 % 0.0 in
21:42 8.4 °F 3.2 °F 1030.0 in Calm     70 % 0.0 in
21:45 4.2 °F 0.9 °F 1028.0 in NE 1.6 mph 1.6 mph 79 % 0.0 in
21:47 8.3 °F 3.2 °F 1030.0 in Calm     70 % 0.0 in
21:52 8.2 °F 3.3 °F 1030.0 in Calm     71 % 0.0 in
21:55 4.0 °F 0.7 °F 1028.0 in NE 1.6 mph 1.6 mph 79 % 0.0 in
21:57 8.2 °F 3.3 °F 1030.0 in Calm     71 % 0.0 in
22:02 8.1 °F 3.2 °F 1029.0 in Calm     71 % 0.0 in
22:05 3.9 °F 0.6 °F 1028.0 in NE 1.6 mph 1.6 mph 79 % 0.0 in
22:07 8.0 °F 3.1 °F 1029.0 in Calm     71 % 0.0 in
22:12 8.0 °F 3.3 °F 1029.0 in Calm     72 % 0.0 in
22:15 3.6 °F 0.3 °F 1028.0 in NE 1.6 mph 4.8 mph 79 % 0.0 in
22:17 8.0 °F 3.3 °F 1030.0 in Calm     72 % 0.0 in
22:22 7.9 °F 3.2 °F 1030.0 in Calm     72 % 0.0 in
22:25 3.4 °F 0.1 °F 1027.0 in NE 1.6 mph 3.2 mph 79 % 0.0 in
22:27 7.9 °F 3.2 °F 1030.0 in Calm     72 % 0.0 in
22:32 7.9 °F 3.3 °F 1030.0 in Calm     73 % 0.0 in
22:35 3.3 °F 0.0 °F 1027.0 in Calm   1.6 mph 79 % 0.0 in
22:37 7.7 °F 3.2 °F 1030.0 in Calm     73 % 0.0 in
22:42 7.6 °F 3.1 °F 1030.0 in Calm     73 % 0.0 in
22:45 3.1 °F -0.2 °F 1027.0 in Calm     79 % 0.0 in
22:47 7.5 °F 3.2 °F 1029.0 in NE 1.9 mph   74 % 0.0 in
22:52 7.4 °F 3.1 °F 1029.0 in Calm     74 % 0.0 in
22:55 3.0 °F -0.3 °F 1027.0 in Calm     79 % 0.0 in
22:57 7.3 °F 2.9 °F 1029.0 in Calm     74 % 0.0 in
23:02 7.1 °F 2.8 °F 1030.0 in NE 1.9 mph 1.9 mph 74 % 0.0 in
23:05 2.9 °F -0.4 °F 1027.0 in Calm     79 % 0.0 in
23:07 7.1 °F 2.8 °F 1030.0 in Calm     74 % 0.0 in
23:12 7.0 °F 2.9 °F 1030.0 in Calm     75 % 0.0 in
23:15 3.0 °F -0.3 °F 1027.0 in Calm     79 % 0.0 in
23:17 6.8 °F 2.7 °F 1030.0 in Calm     75 % 0.0 in
23:22 6.7 °F 2.4 °F 1030.0 in Calm     74 % 0.0 in
23:25 2.8 °F -0.5 °F 1027.0 in Calm     79 % 0.0 in
23:27 6.5 °F 2.2 °F 1030.0 in Calm     74 % 0.0 in
23:32 6.5 °F 2.4 °F 1030.0 in Calm     75 % 0.0 in
23:35 2.9 °F -0.2 °F 1026.0 in Calm     80 % 0.0 in
23:37 6.5 °F 2.4 °F 1030.0 in Calm     75 % 0.0 in
23:42 6.5 °F 2.6 °F 1030.0 in Calm     76 % 0.0 in
23:45 3.0 °F -0.3 °F 1026.0 in NE 1.6 mph 3.2 mph 79 % 0.0 in
23:47 6.5 °F 2.6 °F 1030.0 in Calm     76 % 0.0 in
23:52 6.3 °F 2.4 °F 1030.0 in Calm     76 % 0.0 in
23:55 2.9 °F -0.4 °F 1027.0 in Calm   1.6 mph 79 % 0.0 in
23:57 6.2 °F 2.3 °F 1030.0 in NE 3.7 mph 3.7 mph 76 % 0.0 in
Meteo Sesrovires
Elogis d' Weather Underground - 2 mb

Guio original per  Jim McMurry - jmcmurry@mwt.net Adaptat per a la plantilla per  Wim van der Kuil - Leuven-Template.eu

Trobareu la nostra informacio del temps tambe a:

Weather Underground

AWEKAS